Time;durP1;ratioP1;P1;durP2;ratioP2;P2;SDS_P1;SDS_P2;PMS_P1;PMS_P2;Temp;Humidity;BMP_temperature;BMP_pressure;BME280_temperature;BME280_humidity;BME280_pressure;Samples;Min_cycle;Max_cycle;Signal;HPM_P1;HPM_P2
2023/03/10 00:01:28;;;;;;;26.08;11.90;;;2.30;99.90;;;;;;4253088;27;20085;-83
2023/03/10 00:03:31;;;;;;;24.77;11.13;;;1.60;99.90;;;;;;4253076;27;20039;-83
2023/03/10 00:05:31;;;;;;;24.83;11.20;;;1.60;99.90;;;;;;4250592;27;20039;-83
2023/03/10 00:07:32;;;;;;;23.52;10.93;;;1.60;99.90;;;;;;4241881;27;20058;-83
2023/03/10 00:09:33;;;;;;;25.38;11.60;;;2.00;99.90;;;;;;4252582;27;20050;-83
2023/03/10 00:11:33;;;;;;;25.40;11.30;;;1.60;99.90;;;;;;4253053;27;20140;-83
2023/03/10 00:13:35;;;;;;;19.95;9.95;;;1.60;99.90;;;;;;4251743;27;20046;-83
2023/03/10 00:15:35;;;;;;;24.52;11.15;;;1.60;99.90;;;;;;4252850;27;20053;-82
2023/03/10 00:17:36;;;;;;;26.92;11.98;;;2.20;99.90;;;;;;4252851;27;20537;-82
2023/03/10 00:19:37;;;;;;;23.98;11.13;;;1.60;99.90;;;;;;4252728;27;20035;-82
2023/03/10 00:21:38;;;;;;;24.73;11.68;;;1.60;99.90;;;;;;4252875;27;20047;-82
2023/03/10 00:23:38;;;;;;;26.20;10.85;;;1.60;99.90;;;;;;4252607;27;20044;-82
2023/03/10 00:25:39;;;;;;;23.40;11.32;;;2.70;99.90;;;;;;4221477;28;20070;-81
2023/03/10 00:27:40;;;;;;;23.50;10.18;;;1.70;99.90;;;;;;4247362;27;20417;-82
2023/03/10 00:29:42;;;;;;;22.27;10.73;;;1.60;99.90;;;;;;4234235;28;20118;-82
2023/03/10 00:31:43;;;;;;;21.25;9.80;;;1.90;99.90;;;;;;4234355;28;20049;-82
2023/03/10 00:33:44;;;;;;;24.95;10.70;;;1.60;99.90;;;;;;4252417;27;20043;-82
2023/03/10 00:35:45;;;;;;;23.13;11.02;;;1.60;99.90;;;;;;4252682;27;20043;-81
2023/03/10 00:37:46;;;;;;;26.50;11.02;;;1.60;99.90;;;;;;4252093;27;20046;-82
2023/03/10 00:39:51;;;;;;;22.75;9.93;;;1.60;99.90;;;;;;4251253;27;20075;-82
2023/03/10 00:41:53;;;;;;;19.90;9.02;;;2.00;99.90;;;;;;4241974;27;20040;-82
2023/03/10 00:43:53;;;;;;;17.65;8.93;;;1.60;99.90;;;;;;4235058;28;20122;-82
2023/03/10 00:45:55;;;;;;;17.42;8.13;;;1.50;99.90;;;;;;4216913;28;20059;-82
2023/03/10 00:47:56;;;;;;;15.88;7.35;;;1.60;99.90;;;;;;4235234;28;20051;-82
2023/03/10 00:49:59;;;;;;;16.25;7.35;;;1.50;99.90;;;;;;4235290;28;20403;-82
2023/03/10 00:51:59;;;;;;;15.20;7.05;;;2.10;99.90;;;;;;4235386;28;20487;-82
2023/03/10 00:54:03;;;;;;;16.58;7.38;;;1.80;99.90;;;;;;4217188;28;20094;-82
2023/03/10 00:56:09;;;;;;;14.70;6.97;;;1.60;99.90;;;;;;4216832;28;20059;-82
2023/03/10 00:58:11;;;;;;;16.55;8.35;;;1.60;99.90;;;;;;4234904;28;20411;-82
2023/03/10 01:00:14;;;;;;;18.10;8.15;;;2.30;99.90;;;;;;4244301;27;20035;-82
2023/03/10 01:02:16;;;;;;;15.45;7.63;;;1.60;99.90;;;;;;4252827;27;20060;-82
2023/03/10 01:04:18;;;;;;;16.65;6.90;;;1.60;99.90;;;;;;4251839;27;20090;-82
2023/03/10 01:06:20;;;;;;;14.63;7.38;;;1.60;99.90;;;;;;4233234;28;20060;-82
2023/03/10 01:08:21;;;;;;;15.68;7.43;;;1.60;99.90;;;;;;4251326;27;20045;-82
2023/03/10 01:10:23;;;;;;;16.15;7.65;;;1.60;99.90;;;;;;4251650;27;20581;-82
2023/03/10 01:12:23;;;;;;;12.98;6.68;;;1.60;99.90;;;;;;4251696;27;20053;-82
2023/03/10 01:14:24;;;;;;;15.82;7.88;;;1.60;99.90;;;;;;4251934;27;20403;-82
2023/03/10 01:16:26;;;;;;;13.90;6.82;;;1.60;99.90;;;;;;4250811;27;20071;-82
2023/03/10 01:18:27;;;;;;;17.33;7.28;;;1.60;99.90;;;;;;4251365;27;20100;-82
2023/03/10 01:20:28;;;;;;;14.88;6.68;;;1.60;99.90;;;;;;4249242;27;20487;-82
2023/03/10 01:22:29;;;;;;;14.05;6.88;;;1.60;99.90;;;;;;4251792;27;20047;-82
2023/03/10 01:24:29;;;;;;;13.25;6.60;;;1.80;99.90;;;;;;4251594;27;20538;-82
2023/03/10 01:26:30;;;;;;;14.20;6.32;;;2.30;99.90;;;;;;4251503;27;20055;-82
2023/03/10 01:28:31;;;;;;;17.50;7.57;;;2.80;99.90;;;;;;4251325;27;20479;-82
2023/03/10 01:30:32;;;;;;;18.23;7.45;;;1.60;99.90;;;;;;4251497;27;20121;-82
2023/03/10 01:32:32;;;;;;;14.15;7.03;;;1.90;99.90;;;;;;4251723;27;20064;-82
2023/03/10 01:34:33;;;;;;;17.08;8.23;;;1.60;99.90;;;;;;4233189;28;20036;-82
2023/03/10 01:36:34;;;;;;;14.40;6.65;;;1.70;99.90;;;;;;4240759;27;20085;-82
2023/03/10 01:38:36;;;;;;;13.98;6.38;;;1.70;99.90;;;;;;4216016;28;20044;-82
2023/03/10 01:40:37;;;;;;;15.05;6.85;;;2.10;99.90;;;;;;4234029;28;20051;-82
2023/03/10 01:42:38;;;;;;;13.32;6.35;;;2.20;99.90;;;;;;4233601;28;20566;-83
2023/03/10 01:44:39;;;;;;;12.73;6.70;;;1.70;99.90;;;;;;4233742;28;20126;-83
2023/03/10 01:46:48;;;;;;;15.75;7.32;;;1.70;99.90;;;;;;4215792;28;20086;-82
2023/03/10 01:48:49;;;;;;;13.98;6.00;;;1.70;99.90;;;;;;4233894;28;20099;-82
2023/03/10 01:50:53;;;;;;;13.27;6.70;;;1.70;99.90;;;;;;4233566;28;20051;-82
2023/03/10 01:52:57;;;;;;;13.98;6.40;;;1.70;99.90;;;;;;4239383;27;20038;-82
2023/03/10 01:54:59;;;;;;;14.75;6.68;;;1.70;99.90;;;;;;4251867;27;20046;-82
2023/03/10 01:57:01;;;;;;;16.75;7.93;;;3.10;99.90;;;;;;4250959;27;20125;-82
2023/03/10 01:59:03;;;;;;;14.45;6.85;;;1.70;99.90;;;;;;4250823;27;20043;-82
2023/03/10 02:01:06;;;;;;;14.73;6.55;;;2.50;99.90;;;;;;4251139;27;20046;-82
2023/03/10 02:03:13;;;;;;;14.07;6.53;;;2.50;99.90;;;;;;4250760;27;20071;-82
2023/03/10 02:05:15;;;;;;;18.27;7.10;;;1.70;99.90;;;;;;4250822;27;20058;-82
2023/03/10 02:07:20;;;;;;;16.85;7.50;;;1.70;99.90;;;;;;4250891;27;20051;-82
2023/03/10 02:09:23;;;;;;;14.52;7.30;;;2.00;99.90;;;;;;4250463;27;20380;-82
2023/03/10 02:11:25;;;;;;;14.80;6.45;;;1.70;99.90;;;;;;4251080;27;20067;-82
2023/03/10 02:13:26;;;;;;;13.13;6.72;;;1.70;99.90;;;;;;4246421;27;20042;-82
2023/03/10 02:15:28;;;;;;;15.52;7.38;;;2.90;99.90;;;;;;4250474;27;20050;-82
2023/03/10 02:17:30;;;;;;;15.73;7.95;;;2.80;99.90;;;;;;4250534;27;20483;-82
2023/03/10 02:19:42;;;;;;;17.67;8.35;;;1.70;99.90;;;;;;4232295;28;20506;-82
2023/03/10 02:22:06;;;;;;;16.60;7.07;;;1.70;99.90;;;;;;4250516;27;20058;-82
2023/03/10 02:24:30;;;;;;;15.45;7.78;;;1.70;99.90;;;;;;4250612;27;20043;-82
2023/03/10 02:26:46;;;;;;;16.40;7.70;;;1.80;99.90;;;;;;4248511;27;20051;-82
2023/03/10 02:28:47;;;;;;;13.98;6.90;;;1.70;99.90;;;;;;4234525;28;20039;-82
2023/03/10 02:30:51;;;;;;;17.23;8.15;;;1.70;99.90;;;;;;4251274;27;20039;-82
2023/03/10 02:32:59;;;;;;;14.38;6.90;;;1.60;99.90;;;;;;4232178;28;20055;-82
2023/03/10 02:35:00;;;;;;;16.17;7.43;;;2.50;99.90;;;;;;4249834;27;20054;-82
2023/03/10 02:37:00;;;;;;;16.00;7.28;;;1.70;99.90;;;;;;4232296;28;20036;-82
2023/03/10 02:39:02;;;;;;;18.73;8.20;;;1.70;99.90;;;;;;4250242;27;20047;-82
2023/03/10 02:41:33;;;;;;;13.43;6.18;;;1.70;99.90;;;;;;4232087;28;20043;-82
2023/03/10 02:43:34;;;;;;;14.85;7.15;;;1.70;99.90;;;;;;4249856;27;20051;-82
2023/03/10 02:45:39;;;;;;;15.30;7.47;;;2.80;99.90;;;;;;4237829;27;20441;-82
2023/03/10 02:47:40;;;;;;;17.80;7.55;;;2.00;99.90;;;;;;4247570;27;20039;-82
2023/03/10 02:49:41;;;;;;;18.27;7.30;;;1.70;99.90;;;;;;4249887;27;20049;-82
2023/03/10 02:51:45;;;;;;;15.88;7.28;;;3.00;99.90;;;;;;4250231;27;20054;-82
2023/03/10 02:53:45;;;;;;;16.92;7.03;;;1.70;99.90;;;;;;4249752;27;20096;-82
2023/03/10 02:55:47;;;;;;;16.42;7.97;;;1.60;99.90;;;;;;4250007;27;20399;-82
2023/03/10 02:57:48;;;;;;;17.83;7.53;;;1.60;99.90;;;;;;4250630;27;20046;-82
2023/03/10 02:59:49;;;;;;;19.30;7.80;;;1.60;99.90;;;;;;4232438;28;20130;-82
2023/03/10 03:01:51;;;;;;;15.30;7.82;;;1.60;99.90;;;;;;4249391;27;20047;-82
2023/03/10 03:03:52;;;;;;;16.55;8.45;;;2.70;99.90;;;;;;4241753;27;20058;-82
2023/03/10 03:05:53;;;;;;;20.27;9.57;;;1.90;99.90;;;;;;4232961;28;20085;-82
2023/03/10 03:08:00;;;;;;;20.42;8.60;;;1.90;99.90;;;;;;4236493;28;20453;-81
2023/03/10 03:10:02;;;;;;;20.23;8.95;;;1.50;99.90;;;;;;4199503;28;20136;-82
2023/03/10 03:12:04;;;;;;;21.70;10.18;;;2.50;99.90;;;;;;4232835;28;20092;-82
2023/03/10 03:14:06;;;;;;;21.65;9.35;;;1.50;99.90;;;;;;4233093;28;20555;-82
2023/03/10 03:16:08;;;;;;;23.27;10.07;;;1.50;99.90;;;;;;4233180;28;20040;-82
2023/03/10 03:18:09;;;;;;;18.83;8.77;;;1.90;99.90;;;;;;4232587;28;20044;-82
2023/03/10 03:20:13;;;;;;;18.33;9.32;;;2.30;99.90;;;;;;4237437;28;20483;-82
2023/03/10 03:22:13;;;;;;;19.00;9.57;;;1.50;99.90;;;;;;4232710;28;20051;-82
2023/03/10 03:24:19;;;;;;;21.73;9.45;;;1.50;99.90;;;;;;4215070;28;20044;-82
2023/03/10 03:26:22;;;;;;;21.30;8.82;;;1.50;99.90;;;;;;4232596;28;20131;-82
2023/03/10 03:28:23;;;;;;;21.92;8.95;;;1.50;99.90;;;;;;4232475;28;20048;-82
2023/03/10 03:30:26;;;;;;;18.58;8.23;;;1.50;99.90;;;;;;4232615;28;20044;-82
2023/03/10 03:32:27;;;;;;;19.45;9.73;;;1.50;99.90;;;;;;4233344;28;20449;-82
2023/03/10 03:34:28;;;;;;;20.13;9.35;;;1.50;99.90;;;;;;4233200;28;20043;-82
2023/03/10 03:36:29;;;;;;;19.67;9.05;;;1.50;99.90;;;;;;4235498;28;20211;-82
2023/03/10 03:38:31;;;;;;;22.67;9.30;;;1.50;99.90;;;;;;4232242;28;20052;-82
2023/03/10 03:40:34;;;;;;;19.77;9.50;;;1.50;99.90;;;;;;4249801;28;20043;-82
2023/03/10 03:42:35;;;;;;;20.42;9.50;;;1.50;99.90;;;;;;4249374;28;20118;-82
2023/03/10 03:44:35;;;;;;;19.10;9.35;;;1.50;99.90;;;;;;4249826;28;20043;-82
2023/03/10 03:46:37;;;;;;;21.00;9.15;;;1.50;99.90;;;;;;4249811;28;20070;-82
2023/03/10 03:48:39;;;;;;;21.80;9.70;;;2.50;99.90;;;;;;4249673;28;20087;-82
2023/03/10 03:50:39;;;;;;;20.15;8.98;;;1.50;99.90;;;;;;4249761;28;20047;-82
2023/03/10 03:52:43;;;;;;;19.33;8.63;;;1.50;99.90;;;;;;4231707;28;20066;-82
2023/03/10 03:54:44;;;;;;;20.05;9.68;;;1.50;99.90;;;;;;4227386;28;20567;-82
2023/03/10 03:56:45;;;;;;;21.92;9.55;;;1.50;99.90;;;;;;4250574;28;20050;-82
2023/03/10 03:58:46;;;;;;;21.48;9.13;;;1.50;99.90;;;;;;4250293;28;20043;-82
2023/03/10 04:00:46;;;;;;;19.80;9.15;;;1.50;99.90;;;;;;4249326;28;20039;-82
2023/03/10 04:02:47;;;;;;;21.95;10.43;;;1.50;99.90;;;;;;4250036;28;20126;-82
2023/03/10 04:04:48;;;;;;;22.35;9.80;;;1.50;99.90;;;;;;4249875;28;20395;-82
2023/03/10 04:06:49;;;;;;;20.92;10.02;;;1.50;99.90;;;;;;4247510;28;20058;-82
2023/03/10 04:08:53;;;;;;;21.85;10.00;;;1.50;99.90;;;;;;4249250;28;20035;-82
2023/03/10 04:10:54;;;;;;;19.52;9.65;;;2.90;99.90;;;;;;4248892;28;20043;-82
2023/03/10 04:12:58;;;;;;;21.35;9.85;;;1.60;99.90;;;;;;4247348;28;20122;-82
2023/03/10 04:14:59;;;;;;;19.13;8.82;;;2.50;99.90;;;;;;4250923;27;20051;-82
2023/03/10 04:17:00;;;;;;;21.60;10.25;;;1.60;99.90;;;;;;4252321;27;20387;-82
2023/03/10 04:19:02;;;;;;;20.35;9.35;;;1.60;99.90;;;;;;4252127;27;20035;-82
2023/03/10 04:21:03;;;;;;;23.25;9.60;;;1.50;99.90;;;;;;4252777;27;20043;-82
2023/03/10 04:23:04;;;;;;;21.98;9.70;;;1.60;99.90;;;;;;4233795;28;20416;-82
2023/03/10 04:25:06;;;;;;;25.13;10.43;;;1.60;99.90;;;;;;4252685;27;20080;-82
2023/03/10 04:27:08;;;;;;;20.15;8.57;;;1.60;99.90;;;;;;4250009;27;20054;-82
2023/03/10 04:29:10;;;;;;;21.67;10.45;;;2.50;99.90;;;;;;4252617;27;20045;-82
2023/03/10 04:31:15;;;;;;;28.48;12.43;;;2.20;99.90;;;;;;4234129;28;20031;-82
2023/03/10 04:33:17;;;;;;;22.52;11.07;;;2.30;99.90;;;;;;4234094;28;20085;-82
2023/03/10 04:35:17;;;;;;;32.03;11.93;;;1.50;99.90;;;;;;4252506;27;20039;-82
2023/03/10 04:37:20;;;;;;;30.20;12.90;;;1.50;99.90;;;;;;4233916;28;20568;-83
2023/03/10 04:39:21;;;;;;;32.33;13.70;;;1.50;99.90;;;;;;4252532;27;20518;-82
2023/03/10 04:41:22;;;;;;;29.98;13.63;;;1.50;99.90;;;;;;4252114;27;20050;-82
2023/03/10 04:43:24;;;;;;;30.33;12.35;;;1.50;99.90;;;;;;4251924;27;20039;-82
2023/03/10 04:45:25;;;;;;;33.22;15.02;;;2.40;99.90;;;;;;4252205;27;20047;-82
2023/03/10 04:47:25;;;;;;;32.45;13.38;;;1.80;99.90;;;;;;4247284;27;20046;-82
2023/03/10 04:49:27;;;;;;;36.38;15.70;;;1.50;99.90;;;;;;4233024;28;20118;-82
2023/03/10 04:51:30;;;;;;;36.20;14.73;;;1.50;99.90;;;;;;4252156;27;20095;-82
2023/03/10 04:53:31;;;;;;;37.13;14.35;;;1.50;99.90;;;;;;4233798;28;20044;-82
2023/03/10 04:55:32;;;;;;;46.28;17.40;;;1.50;99.90;;;;;;4251615;27;20506;-82
2023/03/10 04:57:33;;;;;;;40.65;16.83;;;2.70;99.90;;;;;;4251686;27;20039;-82
2023/03/10 04:59:35;;;;;;;40.50;15.93;;;1.00;99.90;;;;;;4252240;27;20043;-82
2023/03/10 05:01:35;;;;;;;38.72;16.58;;;1.50;99.90;;;;;;4232898;28;20063;-82
2023/03/10 05:03:37;;;;;;;41.47;15.35;;;1.40;99.90;;;;;;4248198;27;20047;-82
2023/03/10 05:05:40;;;;;;;44.35;17.77;;;2.20;99.90;;;;;;4252761;27;20043;-81
2023/03/10 05:07:41;;;;;;;41.05;17.13;;;1.40;99.90;;;;;;4233424;28;20051;-81
2023/03/10 05:09:41;;;;;;;42.80;16.65;;;1.40;99.90;;;;;;4233782;28;20043;-81
2023/03/10 05:11:42;;;;;;;43.45;17.27;;;2.30;99.90;;;;;;4252229;27;20047;-81
2023/03/10 05:13:44;;;;;;;39.15;16.42;;;1.90;99.90;;;;;;4251641;27;20046;-82
2023/03/10 05:15:46;;;;;;;42.13;16.58;;;2.20;99.90;;;;;;4250655;27;20043;-81
2023/03/10 05:17:46;;;;;;;40.08;17.25;;;1.40;99.90;;;;;;4252316;27;20035;-82
2023/03/10 05:19:48;;;;;;;38.72;15.80;;;1.30;99.90;;;;;;4251780;27;20075;-82
2023/03/10 05:21:49;;;;;;;38.70;16.02;;;1.70;99.90;;;;;;4242914;27;20039;-82
2023/03/10 05:23:50;;;;;;;40.13;15.73;;;1.70;99.90;;;;;;4233724;28;20048;-81
2023/03/10 05:25:50;;;;;;;38.50;15.43;;;1.30;99.90;;;;;;4233590;28;20052;-82
2023/03/10 05:27:51;;;;;;;37.45;15.63;;;1.30;99.90;;;;;;4233849;28;20055;-82
2023/03/10 05:29:52;;;;;;;36.80;15.88;;;2.40;99.90;;;;;;4234530;28;20031;-82
2023/03/10 05:31:53;;;;;;;33.55;14.38;;;1.30;99.90;;;;;;4216474;28;20056;-82
2023/03/10 05:33:56;;;;;;;33.35;13.57;;;1.20;99.90;;;;;;4234989;28;20101;-82
2023/03/10 05:35:57;;;;;;;34.60;14.98;;;1.80;99.90;;;;;;4216863;28;20592;-82
2023/03/10 05:37:58;;;;;;;33.30;13.73;;;1.20;99.90;;;;;;4234702;28;20180;-82
2023/03/10 05:39:59;;;;;;;31.02;14.02;;;1.20;99.90;;;;;;4234345;28;20054;-82
2023/03/10 05:42:00;;;;;;;27.73;12.80;;;1.20;99.90;;;;;;4221514;28;20516;-82
2023/03/10 05:44:00;;;;;;;34.45;14.10;;;1.20;99.90;;;;;;4234704;28;20108;-82
2023/03/10 05:46:01;;;;;;;33.50;13.10;;;1.10;99.90;;;;;;4239218;27;20035;-82
2023/03/10 05:48:02;;;;;;;30.65;13.38;;;1.20;99.90;;;;;;4251250;27;20138;-82
2023/03/10 05:50:04;;;;;;;27.45;11.85;;;1.10;99.90;;;;;;4251287;27;20047;-82
2023/03/10 05:52:07;;;;;;;30.67;12.68;;;1.10;99.90;;;;;;4251045;27;20047;-82
2023/03/10 05:54:09;;;;;;;25.10;10.75;;;1.10;99.90;;;;;;4233255;28;20050;-82
2023/03/10 05:56:15;;;;;;;29.40;12.80;;;1.70;99.90;;;;;;4233450;28;20039;-82
2023/03/10 05:58:16;;;;;;;28.08;12.52;;;2.60;99.90;;;;;;4251303;27;20039;-82
2023/03/10 06:00:17;;;;;;;27.20;11.43;;;1.10;99.90;;;;;;4249551;27;20502;-82
2023/03/10 06:02:18;;;;;;;25.40;10.18;;;1.10;99.90;;;;;;4237778;27;20054;-82
2023/03/10 06:04:20;;;;;;;22.25;10.38;;;1.10;99.90;;;;;;4234029;28;20047;-82
2023/03/10 06:06:20;;;;;;;25.85;11.25;;;1.40;99.90;;;;;;4238176;27;20043;-81
2023/03/10 06:08:22;;;;;;;24.08;11.23;;;2.00;99.90;;;;;;4250096;27;20440;-82
2023/03/10 06:10:23;;;;;;;25.33;10.68;;;1.40;99.90;;;;;;4251381;27;20047;-83
2023/03/10 06:12:23;;;;;;;23.50;10.50;;;1.10;99.90;;;;;;4246173;27;20099;-83
2023/03/10 06:14:25;;;;;;;26.85;11.15;;;1.10;99.90;;;;;;4250437;27;20383;-83
2023/03/10 06:16:26;;;;;;;22.85;9.07;;;1.10;99.90;;;;;;4232364;28;20051;-83
2023/03/10 06:18:28;;;;;;;22.23;9.57;;;2.00;99.90;;;;;;4250065;27;20035;-83
2023/03/10 06:20:30;;;;;;;23.67;10.05;;;1.00;99.90;;;;;;4247496;27;20051;-83
2023/03/10 06:22:30;;;;;;;22.38;9.32;;;1.70;99.90;;;;;;4232497;28;20434;-83
2023/03/10 06:24:31;;;;;;;19.20;8.77;;;1.60;99.90;;;;;;4250856;27;20118;-83
2023/03/10 06:26:33;;;;;;;23.00;10.38;;;1.00;99.90;;;;;;4250749;27;20047;-83
2023/03/10 06:28:36;;;;;;;24.63;10.38;;;1.00;99.90;;;;;;4250680;27;20074;-83
2023/03/10 06:30:37;;;;;;;19.30;8.82;;;1.40;99.90;;;;;;4250922;27;20035;-83
2023/03/10 06:32:39;;;;;;;19.63;8.70;;;1.00;99.90;;;;;;4251044;27;20066;-83
2023/03/10 06:34:40;;;;;;;21.40;9.48;;;1.00;99.90;;;;;;4250737;27;20095;-83
2023/03/10 06:36:40;;;;;;;19.90;9.52;;;1.00;99.90;;;;;;4250747;27;20043;-83
2023/03/10 06:38:41;;;;;;;22.13;8.82;;;1.00;99.90;;;;;;4249708;27;20046;-83
2023/03/10 06:40:42;;;;;;;24.20;9.98;;;0.90;99.90;;;;;;4250726;27;20395;-83
2023/03/10 06:42:43;;;;;;;23.02;9.88;;;0.90;99.90;;;;;;4250968;27;20115;-83
2023/03/10 06:44:53;;;;;;;24.58;9.68;;;2.40;99.90;;;;;;4232719;28;20043;-83
2023/03/10 06:46:55;;;;;;;23.63;10.57;;;1.00;99.90;;;;;;4250622;27;20172;-83
2023/03/10 06:48:55;;;;;;;24.98;10.50;;;1.90;99.90;;;;;;4250843;27;20043;-83
2023/03/10 06:50:56;;;;;;;25.25;10.75;;;1.00;99.90;;;;;;4249688;27;20062;-81
2023/03/10 06:52:58;;;;;;;25.33;11.95;;;0.90;99.90;;;;;;4250008;27;20035;-80
2023/03/10 06:54:59;;;;;;;24.35;11.13;;;1.00;99.90;;;;;;4231262;28;20517;-81
2023/03/10 06:57:00;;;;;;;23.73;9.77;;;1.00;99.90;;;;;;4247383;27;20482;-81
2023/03/10 06:59:01;;;;;;;24.83;10.48;;;1.00;99.90;;;;;;4248736;27;20099;-80
2023/03/10 07:01:03;;;;;;;28.80;12.40;;;1.00;99.90;;;;;;4250293;27;20440;-80
2023/03/10 07:03:04;;;;;;;26.90;11.55;;;1.50;99.90;;;;;;4246370;27;20439;-80
2023/03/10 07:05:10;;;;;;;27.23;12.35;;;1.00;99.90;;;;;;4250026;27;20157;-80
2023/03/10 07:07:13;;;;;;;26.17;11.43;;;1.00;99.90;;;;;;4250119;27;20074;-80
2023/03/10 07:09:15;;;;;;;31.17;11.70;;;1.00;99.90;;;;;;4250189;28;20039;-81
2023/03/10 07:11:17;;;;;;;34.08;12.10;;;1.00;99.90;;;;;;4250700;28;20119;-81
2023/03/10 07:13:20;;;;;;;29.48;13.05;;;1.40;99.90;;;;;;4250525;28;20074;-80
2023/03/10 07:15:21;;;;;;;26.98;12.25;;;1.00;99.90;;;;;;4249119;28;20068;-81
2023/03/10 07:17:24;;;;;;;27.92;11.82;;;1.80;99.90;;;;;;4250329;28;20071;-81
2023/03/10 07:19:25;;;;;;;26.77;11.82;;;1.00;99.90;;;;;;4249429;28;20047;-82
2023/03/10 07:21:28;;;;;;;26.63;11.57;;;1.00;99.90;;;;;;4249874;28;20051;-81
2023/03/10 07:23:29;;;;;;;27.23;11.70;;;1.00;99.90;;;;;;4249633;28;20595;-82
2023/03/10 07:25:30;;;;;;;24.67;11.05;;;1.00;99.90;;;;;;4242139;28;20047;-81
2023/03/10 07:27:32;;;;;;;22.50;10.88;;;1.00;99.90;;;;;;4250285;28;20068;-81
2023/03/10 07:29:35;;;;;;;24.98;11.23;;;1.10;99.90;;;;;;4232291;28;20048;-80
2023/03/10 07:31:36;;;;;;;23.73;10.35;;;1.10;99.90;;;;;;4250248;28;20046;-81
2023/03/10 07:33:37;;;;;;;26.90;11.13;;;2.40;99.90;;;;;;4250580;28;20047;-81
2023/03/10 07:35:39;;;;;;;24.63;10.63;;;1.10;99.90;;;;;;4250662;28;20050;-81
2023/03/10 07:37:40;;;;;;;23.73;9.82;;;2.50;99.90;;;;;;4250947;27;20040;-81
2023/03/10 07:39:41;;;;;;;22.13;10.20;;;1.50;99.90;;;;;;4250956;28;20118;-81
2023/03/10 07:41:42;;;;;;;24.73;11.23;;;1.60;99.90;;;;;;4253413;28;20495;-82
2023/03/10 07:43:43;;;;;;;25.00;10.18;;;1.20;99.90;;;;;;4232123;28;20078;-82
2023/03/10 07:45:43;;;;;;;24.75;9.75;;;1.20;99.90;;;;;;4260226;28;20027;-82
2023/03/10 07:47:45;;;;;;;22.42;10.90;;;1.20;99.90;;;;;;4268832;27;20039;-82
2023/03/10 07:49:46;;;;;;;22.23;9.35;;;2.60;99.90;;;;;;4269725;27;20041;-82
2023/03/10 07:51:46;;;;;;;24.42;10.95;;;1.20;99.90;;;;;;4271489;27;20078;-81
2023/03/10 07:53:48;;;;;;;24.90;10.43;;;1.30;99.90;;;;;;4271620;27;20038;-82
2023/03/10 07:55:49;;;;;;;27.77;10.63;;;1.90;99.90;;;;;;4272116;27;20039;-82
2023/03/10 07:57:49;;;;;;;26.58;10.85;;;1.70;99.90;;;;;;4269842;27;20035;-81
2023/03/10 07:59:56;;;;;;;25.13;11.52;;;1.30;99.90;;;;;;4251639;28;20020;-81
2023/03/10 08:01:57;;;;;;;25.85;10.10;;;1.30;99.90;;;;;;4269223;27;20107;-82
2023/03/10 08:03:57;;;;;;;25.27;11.10;;;1.30;99.90;;;;;;4269020;27;20031;-82
2023/03/10 08:06:07;;;;;;;24.55;10.70;;;1.30;99.90;;;;;;4258696;27;20043;-84
2023/03/10 08:08:09;;;;;;;23.08;9.85;;;2.10;99.90;;;;;;4256505;27;20550;-82
2023/03/10 08:10:17;;;;;;;24.55;10.63;;;1.40;99.90;;;;;;4253249;27;20421;-82
2023/03/10 08:12:24;;;;;;;21.05;10.80;;;1.30;99.90;;;;;;4253825;27;20176;-82
2023/03/10 08:14:27;;;;;;;23.02;9.65;;;1.30;99.90;;;;;;4253415;27;20039;-82
2023/03/10 08:16:28;;;;;;;22.52;10.30;;;1.30;99.90;;;;;;4253345;27;20256;-82
2023/03/10 08:18:35;;;;;;;27.25;10.25;;;2.20;99.90;;;;;;4234920;28;20047;-83
2023/03/10 08:20:36;;;;;;;20.83;10.13;;;2.10;99.90;;;;;;4253217;27;20039;-90
2023/03/10 08:22:36;;;;;;;20.00;9.32;;;1.40;99.90;;;;;;4228056;28;20130;-81
2023/03/10 08:24:37;;;;;;;20.90;10.02;;;1.40;99.90;;;;;;4253084;27;20047;-81
2023/03/10 08:26:38;;;;;;;24.60;11.00;;;1.70;99.90;;;;;;4234666;28;20050;-81
2023/03/10 08:28:39;;;;;;;21.55;10.35;;;2.30;99.90;;;;;;4254292;27;20444;-81
2023/03/10 08:30:42;;;;;;;23.15;10.95;;;1.40;99.90;;;;;;4255004;27;20035;-80
2023/03/10 08:32:43;;;;;;;27.95;11.95;;;1.90;99.90;;;;;;4254129;27;20043;-81
2023/03/10 08:34:45;;;;;;;26.13;10.10;;;1.40;99.90;;;;;;4255494;27;20085;-80
2023/03/10 08:36:47;;;;;;;20.83;9.75;;;1.50;99.90;;;;;;4258040;27;20507;-81
2023/03/10 08:38:50;;;;;;;28.05;11.18;;;2.40;99.90;;;;;;4257080;27;20074;-81
2023/03/10 08:40:51;;;;;;;24.05;11.25;;;1.40;99.90;;;;;;4259594;27;20043;-81
2023/03/10 08:42:52;;;;;;;23.88;9.95;;;1.50;99.90;;;;;;4262910;27;20047;-81
2023/03/10 08:44:56;;;;;;;27.40;11.43;;;1.50;99.90;;;;;;4271072;27;20015;-81
2023/03/10 08:46:57;;;;;;;23.83;11.00;;;1.50;99.90;;;;;;4270244;27;20073;-81
2023/03/10 08:48:58;;;;;;;21.58;10.18;;;1.50;99.90;;;;;;4270135;27;20031;-81
2023/03/10 08:51:00;;;;;;;28.48;11.13;;;1.50;99.90;;;;;;4269659;27;20027;-82
2023/03/10 08:53:02;;;;;;;23.88;10.82;;;2.80;99.90;;;;;;4269053;27;20118;-81
2023/03/10 08:55:04;;;;;;;25.40;10.57;;;1.60;99.90;;;;;;4260889;27;20046;-80
2023/03/10 08:57:16;;;;;;;25.13;10.82;;;1.60;99.90;;;;;;4253846;27;20049;-82
2023/03/10 08:59:18;;;;;;;26.80;11.35;;;1.60;99.90;;;;;;4264281;27;20050;-80
2023/03/10 09:01:19;;;;;;;22.52;9.48;;;1.60;99.90;;;;;;4243681;28;20048;-81
2023/03/10 09:03:20;;;;;;;24.05;11.32;;;2.20;99.90;;;;;;4265777;27;20043;-82
2023/03/10 09:05:21;;;;;;;26.98;12.13;;;1.70;99.90;;;;;;4252713;27;20049;-81
2023/03/10 09:07:22;;;;;;;24.73;10.70;;;1.80;99.90;;;;;;4240635;27;20044;-81
2023/03/10 09:09:22;;;;;;;25.10;10.43;;;2.60;99.90;;;;;;4248493;27;20047;-82
2023/03/10 09:11:30;;;;;;;20.42;9.05;;;2.70;99.90;;;;;;4231226;28;20055;-82
2023/03/10 09:13:31;;;;;;;22.55;10.20;;;1.70;99.90;;;;;;4245871;27;20047;-83
2023/03/10 09:15:33;;;;;;;21.50;9.95;;;1.60;99.90;;;;;;4238766;27;20168;-81
2023/03/10 09:17:34;;;;;;;23.55;11.20;;;1.70;99.90;;;;;;4240935;27;20104;-82
2023/03/10 09:19:34;;;;;;;27.98;10.63;;;1.70;99.90;;;;;;4246152;27;20039;-81
2023/03/10 09:21:37;;;;;;;20.60;9.52;;;2.60;99.90;;;;;;4242906;27;20048;-82
2023/03/10 09:23:41;;;;;;;24.70;10.18;;;1.70;99.90;;;;;;4248139;27;20035;-81
2023/03/10 09:25:42;;;;;;;28.05;11.27;;;1.70;99.90;;;;;;4243258;27;20056;-81
2023/03/10 09:27:42;;;;;;;23.05;9.70;;;2.80;99.90;;;;;;4245062;27;20461;-81
2023/03/10 09:29:43;;;;;;;23.88;10.60;;;1.70;99.90;;;;;;4239268;27;20100;-81
2023/03/10 09:31:47;;;;;;;23.50;9.73;;;1.70;99.90;;;;;;4230442;28;20098;-81
2023/03/10 09:33:47;;;;;;;25.60;11.32;;;1.80;99.90;;;;;;4216989;28;20127;-81
2023/03/10 09:35:49;;;;;;;23.38;9.70;;;1.70;99.90;;;;;;4245819;27;20495;-81
2023/03/10 09:37:51;;;;;;;25.75;10.30;;;1.80;99.90;;;;;;4243455;27;20051;-81
2023/03/10 09:39:52;;;;;;;21.88;9.57;;;1.70;99.90;;;;;;4245199;27;20066;-80
2023/03/10 09:42:11;;;;;;;23.38;10.27;;;2.10;99.90;;;;;;4245635;27;20078;-80
2023/03/10 09:44:49;;;;;;;23.65;9.55;;;1.80;99.90;;;;;;4245611;27;20121;-81
2023/03/10 09:47:00;;;;;;;;;;;1.80;99.90;;;;;;4243098;27;20127;-82
2023/03/10 09:49:27;;;;;;;19.98;9.95;;;1.80;99.90;;;;;;4216146;28;19924;-81
2023/03/10 09:51:29;;;;;;;21.92;8.77;;;1.80;99.90;;;;;;4244661;27;20051;-81
2023/03/10 09:53:51;;;;;;;21.33;8.90;;;1.90;99.90;;;;;;4236026;27;20043;-81
2023/03/10 09:55:52;;;;;;;22.25;9.30;;;1.80;99.90;;;;;;4223210;28;20051;-81
2023/03/10 09:57:55;;;;;;;23.20;9.73;;;1.80;99.90;;;;;;4246194;27;20048;-81
2023/03/10 10:00:04;;;;;;;23.15;10.45;;;1.80;99.90;;;;;;4248723;27;20035;-82
2023/03/10 10:02:26;;;;;;;20.95;9.82;;;1.80;99.90;;;;;;4246404;27;20039;-80
2023/03/10 10:04:30;;;;;;;17.92;8.40;;;1.80;99.90;;;;;;4241388;27;20547;-81
2023/03/10 10:06:37;;;;;;;23.90;9.68;;;1.70;99.90;;;;;;4246307;27;20043;-81
2023/03/10 10:08:46;;;;;;;27.65;10.07;;;1.70;99.90;;;;;;4247646;27;20203;-81
2023/03/10 10:10:56;;;;;;;24.45;9.82;;;1.60;99.90;;;;;;4250192;27;20070;-81
2023/03/10 10:13:13;;;;;;;24.20;10.32;;;1.70;99.90;;;;;;4247936;27;20475;-82
2023/03/10 10:15:24;;;;;;;20.15;8.85;;;1.70;99.90;;;;;;4230997;28;20043;-81
2023/03/10 10:18:01;;;;;;;20.63;9.93;;;1.70;99.90;;;;;;4248255;27;20050;-81
2023/03/10 10:20:05;;;;;;;19.48;9.20;;;1.70;99.90;;;;;;4246437;27;20039;-81
2023/03/10 10:22:31;;;;;;;24.05;10.27;;;1.70;99.90;;;;;;4231981;28;20031;-81
2023/03/10 10:24:33;;;;;;;24.27;9.68;;;1.70;99.90;;;;;;4238895;27;20111;-81
2023/03/10 10:26:33;;;;;;;22.40;10.05;;;1.80;99.90;;;;;;4237425;27;20075;-81
2023/03/10 10:28:52;;;;;;;21.95;9.50;;;1.80;99.90;;;;;;4246590;27;20038;-81
2023/03/10 10:31:09;;;;;;;24.25;9.82;;;2.20;99.90;;;;;;4251059;27;20043;-81
2023/03/10 10:33:12;;;;;;;23.55;9.70;;;1.90;99.90;;;;;;4251732;27;20527;-81
2023/03/10 10:35:23;;;;;;;20.70;9.57;;;2.00;99.90;;;;;;4216357;28;20048;-81
2023/03/10 10:37:29;;;;;;;19.95;8.90;;;1.90;99.90;;;;;;4248852;27;20043;-81